sensor_id;sensor_type;location;lat;lon;timestamp;pressure;altitude;pressure_sealevel;temperature;humidity
53270;BME280;39159;45.634;9.420;2022-09-09T00:02:19;98536.31;;;20.79;100.00
53270;BME280;39159;45.634;9.420;2022-09-09T00:04:59;98528.34;;;20.74;100.00
53270;BME280;39159;45.634;9.420;2022-09-09T00:07:49;98531.09;;;20.70;100.00
53270;BME280;39159;45.634;9.420;2022-09-09T00:10:39;98526.72;;;20.65;100.00
53270;BME280;39159;45.634;9.420;2022-09-09T00:13:24;98526.31;;;20.63;100.00
53270;BME280;39159;45.634;9.420;2022-09-09T00:21:18;98522.22;;;20.54;100.00
53270;BME280;39159;45.634;9.420;2022-09-09T00:26:39;98519.41;;;20.46;100.00
53270;BME280;39159;45.634;9.420;2022-09-09T00:31:37;98515.06;;;20.45;100.00
53270;BME280;39159;45.634;9.420;2022-09-09T00:36:35;98509.53;;;20.49;100.00
53270;BME280;39159;45.634;9.420;2022-09-09T00:39:02;98508.75;;;20.48;99.75
53270;BME280;39159;45.634;9.420;2022-09-09T00:44:32;98491.66;;;20.43;100.00
53270;BME280;39159;45.634;9.420;2022-09-09T00:57:38;98481.78;;;20.42;100.00
53270;BME280;39159;45.634;9.420;2022-09-09T01:00:22;98472.63;;;20.38;99.92
53270;BME280;39159;45.634;9.420;2022-09-09T01:07:58;98458.81;;;20.41;100.00
53270;BME280;39159;45.634;9.420;2022-09-09T01:10:41;98452.84;;;20.43;99.42
53270;BME280;39159;45.634;9.420;2022-09-09T01:13:22;98454.84;;;20.39;99.95
53270;BME280;39159;45.634;9.420;2022-09-09T01:15:49;98454.44;;;20.40;99.64
53270;BME280;39159;45.634;9.420;2022-09-09T01:18:21;98467.88;;;20.38;99.97
53270;BME280;39159;45.634;9.420;2022-09-09T01:26:28;98461.50;;;20.34;100.00
53270;BME280;39159;45.634;9.420;2022-09-09T01:28:55;98456.38;;;20.36;99.91
53270;BME280;39159;45.634;9.420;2022-09-09T01:31:31;98454.06;;;20.42;99.67
53270;BME280;39159;45.634;9.420;2022-09-09T01:33:58;98455.66;;;20.46;98.85
53270;BME280;39159;45.634;9.420;2022-09-09T01:36:37;98459.25;;;20.50;98.54
53270;BME280;39159;45.634;9.420;2022-09-09T01:39:04;98459.66;;;20.53;98.17
53270;BME280;39159;45.634;9.420;2022-09-09T01:41:29;98447.38;;;20.54;98.04
53270;BME280;39159;45.634;9.420;2022-09-09T01:43:55;98443.78;;;20.49;98.35
53270;BME280;39159;45.634;9.420;2022-09-09T01:46:22;98443.00;;;20.45;98.81
53270;BME280;39159;45.634;9.420;2022-09-09T01:48:50;98451.31;;;20.45;98.72
53270;BME280;39159;45.634;9.420;2022-09-09T01:51:17;98456.41;;;20.40;99.00
53270;BME280;39159;45.634;9.420;2022-09-09T01:53:43;98456.78;;;20.38;99.50
53270;BME280;39159;45.634;9.420;2022-09-09T02:04:27;98454.41;;;20.37;99.93
53270;BME280;39159;45.634;9.420;2022-09-09T02:06:56;98457.16;;;20.33;100.00
53270;BME280;39159;45.634;9.420;2022-09-09T02:09:23;98452.81;;;20.32;100.00
53270;BME280;39159;45.634;9.420;2022-09-09T02:11:57;98441.31;;;20.30;100.00
53270;BME280;39159;45.634;9.420;2022-09-09T02:14:34;98444.09;;;20.30;100.00
53270;BME280;39159;45.634;9.420;2022-09-09T02:17:09;98455.13;;;20.26;100.00
53270;BME280;39159;45.634;9.420;2022-09-09T02:19:45;98455.50;;;20.21;100.00
53270;BME280;39159;45.634;9.420;2022-09-09T02:22:16;98454.25;;;20.15;100.00
53270;BME280;39159;45.634;9.420;2022-09-09T02:24:43;98461.78;;;20.15;100.00
53270;BME280;39159;45.634;9.420;2022-09-09T02:27:12;98460.22;;;20.17;100.00
53270;BME280;39159;45.634;9.420;2022-09-09T02:29:41;98470.50;;;20.20;99.78
53270;BME280;39159;45.634;9.420;2022-09-09T02:32:14;98461.03;;;20.21;99.90
53270;BME280;39159;45.634;9.420;2022-09-09T02:34:45;98468.53;;;20.21;99.56
53270;BME280;39159;45.634;9.420;2022-09-09T02:37:12;98454.34;;;20.26;100.00
53270;BME280;39159;45.634;9.420;2022-09-09T02:39:40;98450.78;;;20.29;99.58
53270;BME280;39159;45.634;9.420;2022-09-09T02:42:05;98465.03;;;20.27;99.33
53270;BME280;39159;45.634;9.420;2022-09-09T02:44:32;98459.88;;;20.26;98.56
53270;BME280;39159;45.634;9.420;2022-09-09T02:47:26;98457.13;;;20.26;98.38
53270;BME280;39159;45.634;9.420;2022-09-09T02:50:25;98443.69;;;20.32;98.45
53270;BME280;39159;45.634;9.420;2022-09-09T02:55:47;98425.94;;;20.40;97.77
53270;BME280;39159;45.634;9.420;2022-09-09T02:58:16;98438.59;;;20.41;96.84
53270;BME280;39159;45.634;9.420;2022-09-09T03:00:43;98448.88;;;20.40;97.10
53270;BME280;39159;45.634;9.420;2022-09-09T03:03:09;98450.06;;;20.39;97.15
53270;BME280;39159;45.634;9.420;2022-09-09T03:05:35;98438.22;;;20.42;96.36
53270;BME280;39159;45.634;9.420;2022-09-09T03:08:01;98432.69;;;20.49;95.76
53270;BME280;39159;45.634;9.420;2022-09-09T03:10:27;98421.22;;;20.47;95.94
53270;BME280;39159;45.634;9.420;2022-09-09T03:12:52;98423.59;;;20.45;96.24
53270;BME280;39159;45.634;9.420;2022-09-09T03:15:18;98433.88;;;20.45;95.88
53270;BME280;39159;45.634;9.420;2022-09-09T03:17:43;98422.78;;;20.45;95.70
53270;BME280;39159;45.634;9.420;2022-09-09T03:20:09;98412.88;;;20.47;95.32
53270;BME280;39159;45.634;9.420;2022-09-09T03:22:35;98403.38;;;20.45;96.07
53270;BME280;39159;45.634;9.420;2022-09-09T03:25:00;98409.31;;;20.43;95.93
53270;BME280;39159;45.634;9.420;2022-09-09T03:27:28;98406.97;;;20.45;96.03
53270;BME280;39159;45.634;9.420;2022-09-09T03:29:53;98394.69;;;20.46;95.54
53270;BME280;39159;45.634;9.420;2022-09-09T03:32:19;98413.25;;;20.42;96.54
53270;BME280;39159;45.634;9.420;2022-09-09T03:34:47;98420.00;;;20.41;96.04
53270;BME280;39159;45.634;9.420;2022-09-09T03:37:15;98407.72;;;20.42;95.95
53270;BME280;39159;45.634;9.420;2022-09-09T03:39:41;98405.34;;;20.44;95.35
53270;BME280;39159;45.634;9.420;2022-09-09T03:42:06;98409.75;;;20.45;95.41
53270;BME280;39159;45.634;9.420;2022-09-09T03:44:32;98410.94;;;20.52;94.95
53270;BME280;39159;45.634;9.420;2022-09-09T03:46:57;98400.25;;;20.54;94.43
53270;BME280;39159;45.634;9.420;2022-09-09T03:49:25;98406.97;;;20.49;94.82
53270;BME280;39159;45.634;9.420;2022-09-09T03:51:52;98415.66;;;20.47;95.16
53270;BME280;39159;45.634;9.420;2022-09-09T03:54:17;98415.28;;;20.45;95.31
53270;BME280;39159;45.634;9.420;2022-09-09T03:56:43;98408.50;;;20.39;96.01
53270;BME280;39159;45.634;9.420;2022-09-09T03:59:08;98406.09;;;20.34;96.40
53270;BME280;39159;45.634;9.420;2022-09-09T04:01:34;98408.06;;;20.30;97.16
53270;BME280;39159;45.634;9.420;2022-09-09T04:03:59;98405.69;;;20.32;97.73
53270;BME280;39159;45.634;9.420;2022-09-09T04:06:27;98418.31;;;20.26;98.61
53270;BME280;39159;45.634;9.420;2022-09-09T04:08:53;98424.25;;;20.24;99.37
53270;BME280;39159;45.634;9.420;2022-09-09T04:11:19;98420.72;;;20.31;99.69
53270;BME280;39159;45.634;9.420;2022-09-09T04:13:45;98429.03;;;20.31;100.00
53270;BME280;39159;45.634;9.420;2022-09-09T04:16:11;98422.66;;;20.27;100.00
53270;BME280;39159;45.634;9.420;2022-09-09T04:18:38;98421.78;;;20.12;100.00
53270;BME280;39159;45.634;9.420;2022-09-09T04:21:05;98422.09;;;20.00;100.00
53270;BME280;39159;45.634;9.420;2022-09-09T04:23:32;98439.84;;;19.95;100.00
53270;BME280;39159;45.634;9.420;2022-09-09T04:25:59;98445.41;;;19.95;100.00
53270;BME280;39159;45.634;9.420;2022-09-09T04:28:27;98453.75;;;19.99;100.00
53270;BME280;39159;45.634;9.420;2022-09-09T04:30:53;98462.47;;;20.04;100.00
53270;BME280;39159;45.634;9.420;2022-09-09T04:33:19;98463.63;;;20.00;100.00
53270;BME280;39159;45.634;9.420;2022-09-09T04:35:49;98469.22;;;20.03;100.00
53270;BME280;39159;45.634;9.420;2022-09-09T04:38:16;98479.47;;;20.03;100.00
53270;BME280;39159;45.634;9.420;2022-09-09T04:40:46;98478.31;;;20.04;100.00
53270;BME280;39159;45.634;9.420;2022-09-09T04:43:12;98485.38;;;19.98;100.00
53270;BME280;39159;45.634;9.420;2022-09-09T04:45:39;98493.56;;;19.83;100.00
53270;BME280;39159;45.634;9.420;2022-09-09T04:48:06;98489.75;;;19.61;100.00
53270;BME280;39159;45.634;9.420;2022-09-09T04:50:31;98485.59;;;19.44;100.00
53270;BME280;39159;45.634;9.420;2022-09-09T04:53:00;98488.00;;;19.12;100.00
53270;BME280;39159;45.634;9.420;2022-09-09T04:55:25;98486.66;;;18.99;100.00
53270;BME280;39159;45.634;9.420;2022-09-09T04:57:51;98497.06;;;18.79;100.00
53270;BME280;39159;45.634;9.420;2022-09-09T05:00:16;98503.56;;;18.67;100.00
53270;BME280;39159;45.634;9.420;2022-09-09T05:02:42;98509.31;;;18.55;100.00
53270;BME280;39159;45.634;9.420;2022-09-09T05:05:08;98514.78;;;18.51;100.00
53270;BME280;39159;45.634;9.420;2022-09-09T05:07:33;98508.41;;;18.47;100.00
53270;BME280;39159;45.634;9.420;2022-09-09T05:09:59;98511.31;;;18.31;100.00
53270;BME280;39159;45.634;9.420;2022-09-09T05:12:24;98509.91;;;18.18;100.00
53270;BME280;39159;45.634;9.420;2022-09-09T05:14:53;98514.03;;;18.28;100.00
53270;BME280;39159;45.634;9.420;2022-09-09T05:17:19;98508.44;;;18.24;100.00
53270;BME280;39159;45.634;9.420;2022-09-09T05:19:44;98502.59;;;18.29;100.00
53270;BME280;39159;45.634;9.420;2022-09-09T05:22:10;98494.72;;;18.31;100.00
53270;BME280;39159;45.634;9.420;2022-09-09T05:24:37;98503.09;;;18.35;100.00
53270;BME280;39159;45.634;9.420;2022-09-09T05:27:02;98507.50;;;18.39;100.00
53270;BME280;39159;45.634;9.420;2022-09-09T05:29:28;98504.56;;;18.29;100.00
53270;BME280;39159;45.634;9.420;2022-09-09T05:31:53;98507.31;;;18.29;100.00
53270;BME280;39159;45.634;9.420;2022-09-09T05:34:19;98504.13;;;18.27;100.00
53270;BME280;39159;45.634;9.420;2022-09-09T05:36:45;98517.94;;;18.27;100.00
53270;BME280;39159;45.634;9.420;2022-09-09T05:39:12;98571.41;;;18.38;100.00
53270;BME280;39159;45.634;9.420;2022-09-09T05:41:37;98591.25;;;18.43;100.00
53270;BME280;39159;45.634;9.420;2022-09-09T05:44:03;98595.28;;;18.50;100.00
53270;BME280;39159;45.634;9.420;2022-09-09T05:46:28;98598.91;;;18.54;100.00
53270;BME280;39159;45.634;9.420;2022-09-09T05:48:54;98606.91;;;18.59;100.00
53270;BME280;39159;45.634;9.420;2022-09-09T05:51:22;98593.25;;;18.47;100.00
53270;BME280;39159;45.634;9.420;2022-09-09T05:53:49;98581.97;;;18.32;100.00
53270;BME280;39159;45.634;9.420;2022-09-09T05:56:18;98550.72;;;18.05;100.00
53270;BME280;39159;45.634;9.420;2022-09-09T05:58:44;98556.81;;;17.52;100.00
53270;BME280;39159;45.634;9.420;2022-09-09T06:01:25;98543.38;;;17.51;100.00
53270;BME280;39159;45.634;9.420;2022-09-09T06:03:52;98552.59;;;17.19;100.00
53270;BME280;39159;45.634;9.420;2022-09-09T06:06:20;98556.44;;;17.15;100.00
53270;BME280;39159;45.634;9.420;2022-09-09T06:08:46;98551.38;;;17.17;100.00
53270;BME280;39159;45.634;9.420;2022-09-09T06:13:38;98564.72;;;17.15;100.00
53270;BME280;39159;45.634;9.420;2022-09-09T06:16:08;98557.72;;;17.02;100.00
53270;BME280;39159;45.634;9.420;2022-09-09T06:18:34;98549.38;;;16.98;100.00
53270;BME280;39159;45.634;9.420;2022-09-09T06:21:01;98550.84;;;16.92;100.00
53270;BME280;39159;45.634;9.420;2022-09-09T06:23:29;98565.31;;;16.89;100.00
53270;BME280;39159;45.634;9.420;2022-09-09T06:28:34;98547.63;;;16.90;100.00
53270;BME280;39159;45.634;9.420;2022-09-09T06:31:01;98541.38;;;16.93;100.00
53270;BME280;39159;45.634;9.420;2022-09-09T06:33:31;98542.56;;;16.92;100.00
53270;BME280;39159;45.634;9.420;2022-09-09T06:35:57;98533.31;;;16.84;100.00
53270;BME280;39159;45.634;9.420;2022-09-09T06:38:23;98533.41;;;16.88;100.00
53270;BME280;39159;45.634;9.420;2022-09-09T06:40:55;98537.06;;;16.92;100.00
53270;BME280;39159;45.634;9.420;2022-09-09T06:43:23;98540.66;;;16.96;100.00
53270;BME280;39159;45.634;9.420;2022-09-09T06:45:59;98534.59;;;17.06;100.00
53270;BME280;39159;45.634;9.420;2022-09-09T06:48:26;98541.91;;;17.18;100.00
53270;BME280;39159;45.634;9.420;2022-09-09T06:51:00;98550.94;;;17.34;100.00
53270;BME280;39159;45.634;9.420;2022-09-09T06:53:26;98547.97;;;17.43;100.00
53270;BME280;39159;45.634;9.420;2022-09-09T06:55:52;98544.16;;;17.51;100.00
53270;BME280;39159;45.634;9.420;2022-09-09T06:58:17;98545.03;;;17.55;100.00
53270;BME280;39159;45.634;9.420;2022-09-09T07:00:43;98551.69;;;17.74;100.00
53270;BME280;39159;45.634;9.420;2022-09-09T07:03:10;98551.13;;;17.84;100.00
53270;BME280;39159;45.634;9.420;2022-09-09T07:05:35;98546.41;;;17.65;100.00
53270;BME280;39159;45.634;9.420;2022-09-09T07:08:01;98544.03;;;17.64;100.00
53270;BME280;39159;45.634;9.420;2022-09-09T07:10:27;98552.06;;;17.72;100.00
53270;BME280;39159;45.634;9.420;2022-09-09T07:12:53;98553.75;;;17.77;100.00
53270;BME280;39159;45.634;9.420;2022-09-09T07:15:18;98554.34;;;17.86;100.00
53270;BME280;39159;45.634;9.420;2022-09-09T07:17:44;98553.59;;;17.89;100.00
53270;BME280;39159;45.634;9.420;2022-09-09T07:20:10;98555.25;;;17.94;100.00
53270;BME280;39159;45.634;9.420;2022-09-09T07:22:36;98555.56;;;17.89;100.00
53270;BME280;39159;45.634;9.420;2022-09-09T07:25:02;98546.59;;;17.95;100.00
53270;BME280;39159;45.634;9.420;2022-09-09T07:27:27;98563.06;;;18.11;100.00
53270;BME280;39159;45.634;9.420;2022-09-09T07:29:53;98551.88;;;18.04;100.00
53270;BME280;39159;45.634;9.420;2022-09-09T07:32:19;98561.47;;;18.10;100.00
53270;BME280;39159;45.634;9.420;2022-09-09T07:34:45;98562.09;;;18.23;100.00
53270;BME280;39159;45.634;9.420;2022-09-09T07:37:12;98568.53;;;18.31;100.00
53270;BME280;39159;45.634;9.420;2022-09-09T07:39:38;98565.00;;;18.57;100.00
53270;BME280;39159;45.634;9.420;2022-09-09T07:42:04;98560.00;;;18.66;100.00
53270;BME280;39159;45.634;9.420;2022-09-09T07:44:30;98566.88;;;18.76;100.00
53270;BME280;39159;45.634;9.420;2022-09-09T07:47:00;98566.53;;;18.77;100.00
53270;BME280;39159;45.634;9.420;2022-09-09T07:49:25;98559.97;;;18.89;100.00
53270;BME280;39159;45.634;9.420;2022-09-09T07:51:51;98560.31;;;18.84;100.00
53270;BME280;39159;45.634;9.420;2022-09-09T07:54:18;98560.06;;;18.96;100.00
53270;BME280;39159;45.634;9.420;2022-09-09T07:56:49;98565.03;;;19.10;100.00
53270;BME280;39159;45.634;9.420;2022-09-09T07:59:14;98567.03;;;19.13;100.00
53270;BME280;39159;45.634;9.420;2022-09-09T08:01:42;98564.09;;;19.29;100.00
53270;BME280;39159;45.634;9.420;2022-09-09T08:04:10;98579.56;;;19.34;100.00
53270;BME280;39159;45.634;9.420;2022-09-09T08:06:41;98580.50;;;19.75;100.00
53270;BME280;39159;45.634;9.420;2022-09-09T08:09:08;98581.38;;;20.24;99.72
53270;BME280;39159;45.634;9.420;2022-09-09T08:11:35;98592.13;;;20.74;95.97
53270;BME280;39159;45.634;9.420;2022-09-09T08:14:01;98591.03;;;20.85;95.07
53270;BME280;39159;45.634;9.420;2022-09-09T08:16:29;98589.53;;;20.50;93.44
53270;BME280;39159;45.634;9.420;2022-09-09T08:18:56;98593.00;;;20.85;93.35
53270;BME280;39159;45.634;9.420;2022-09-09T08:21:27;98588.25;;;20.85;92.76
53270;BME280;39159;45.634;9.420;2022-09-09T08:23:54;98593.34;;;20.80;93.91
53270;BME280;39159;45.634;9.420;2022-09-09T08:28:51;98592.44;;;21.24;92.01
53270;BME280;39159;45.634;9.420;2022-09-09T08:31:20;98587.88;;;21.57;89.83
53270;BME280;39159;45.634;9.420;2022-09-09T08:33:46;98588.38;;;21.91;89.11
53270;BME280;39159;45.634;9.420;2022-09-09T08:36:14;98595.19;;;22.19;87.52
53270;BME280;39159;45.634;9.420;2022-09-09T08:38:43;98600.00;;;22.40;83.65
53270;BME280;39159;45.634;9.420;2022-09-09T08:43:37;98602.00;;;22.50;82.41
53270;BME280;39159;45.634;9.420;2022-09-09T08:46:26;98604.78;;;22.61;80.47
53270;BME280;39159;45.634;9.420;2022-09-09T08:49:02;98597.63;;;22.67;82.05
53270;BME280;39159;45.634;9.420;2022-09-09T08:51:32;98600.72;;;22.04;81.63
53270;BME280;39159;45.634;9.420;2022-09-09T08:54:02;98594.06;;;22.41;83.25
53270;BME280;39159;45.634;9.420;2022-09-09T08:56:31;98591.28;;;22.38;80.96
53270;BME280;39159;45.634;9.420;2022-09-09T08:58:59;98594.78;;;22.06;80.42
53270;BME280;39159;45.634;9.420;2022-09-09T09:12:25;98604.00;;;23.10;73.30
53270;BME280;39159;45.634;9.420;2022-09-09T09:14:52;98603.53;;;23.33;70.77
53270;BME280;39159;45.634;9.420;2022-09-09T09:17:21;98614.59;;;23.55;70.66
53270;BME280;39159;45.634;9.420;2022-09-09T09:19:49;98612.69;;;23.30;72.11
53270;BME280;39159;45.634;9.420;2022-09-09T09:22:18;98607.47;;;23.43;72.17
53270;BME280;39159;45.634;9.420;2022-09-09T09:24:54;98610.19;;;23.68;71.57
53270;BME280;39159;45.634;9.420;2022-09-09T09:30:35;98609.69;;;24.54;70.39
53270;BME280;39159;45.634;9.420;2022-09-09T09:33:17;98611.81;;;24.36;68.65
53270;BME280;39159;45.634;9.420;2022-09-09T09:35:43;98597.59;;;24.75;69.41
53270;BME280;39159;45.634;9.420;2022-09-09T09:38:38;98600.88;;;24.63;65.80
53270;BME280;39159;45.634;9.420;2022-09-09T09:41:05;98592.84;;;24.69;62.84
53270;BME280;39159;45.634;9.420;2022-09-09T09:43:37;98593.78;;;24.51;63.28
53270;BME280;39159;45.634;9.420;2022-09-09T09:46:05;98590.63;;;24.49;62.52
53270;BME280;39159;45.634;9.420;2022-09-09T09:48:42;98599.66;;;24.05;63.54
53270;BME280;39159;45.634;9.420;2022-09-09T09:51:11;98607.47;;;24.31;62.47
53270;BME280;39159;45.634;9.420;2022-09-09T09:53:40;98602.78;;;24.14;62.47
53270;BME280;39159;45.634;9.420;2022-09-09T09:56:09;98600.47;;;24.61;59.64
53270;BME280;39159;45.634;9.420;2022-09-09T10:01:03;98605.59;;;24.70;59.80
53270;BME280;39159;45.634;9.420;2022-09-09T10:03:33;98610.13;;;24.53;60.45
53270;BME280;39159;45.634;9.420;2022-09-09T10:06:05;98593.50;;;24.35;61.21
53270;BME280;39159;45.634;9.420;2022-09-09T10:08:34;98594.22;;;24.46;62.22
53270;BME280;39159;45.634;9.420;2022-09-09T10:13:50;98586.66;;;25.33;60.41
53270;BME280;39159;45.634;9.420;2022-09-09T10:19:12;98582.59;;;26.03;55.22
53270;BME280;39159;45.634;9.420;2022-09-09T10:30:16;98575.28;;;26.13;57.64
53270;BME280;39159;45.634;9.420;2022-09-09T10:38:17;98563.13;;;26.97;50.12
53270;BME280;39159;45.634;9.420;2022-09-09T10:46:17;98558.53;;;27.07;48.96
53270;BME280;39159;45.634;9.420;2022-09-09T10:49:01;98562.16;;;26.84;47.29
53270;BME280;39159;45.634;9.420;2022-09-09T10:52:02;98563.00;;;26.81;46.63
53270;BME280;39159;45.634;9.420;2022-09-09T10:59:53;98553.34;;;26.62;48.33
53270;BME280;39159;45.634;9.420;2022-09-09T11:02:33;98558.03;;;27.12;46.29
53270;BME280;39159;45.634;9.420;2022-09-09T11:07:29;98552.81;;;27.54;44.51
53270;BME280;39159;45.634;9.420;2022-09-09T11:10:02;98537.88;;;26.77;45.80
53270;BME280;39159;45.634;9.420;2022-09-09T11:12:33;98544.75;;;27.56;48.27
53270;BME280;39159;45.634;9.420;2022-09-09T11:15:06;98548.72;;;27.39;44.83
53270;BME280;39159;45.634;9.420;2022-09-09T11:17:42;98551.41;;;27.46;48.61
53270;BME280;39159;45.634;9.420;2022-09-09T11:20:13;98535.00;;;27.64;45.75
53270;BME280;39159;45.634;9.420;2022-09-09T11:22:52;98529.94;;;27.76;43.44
53270;BME280;39159;45.634;9.420;2022-09-09T11:25:26;98531.66;;;27.69;44.23
53270;BME280;39159;45.634;9.420;2022-09-09T11:30:50;98524.59;;;27.45;43.91
53270;BME280;39159;45.634;9.420;2022-09-09T11:36:23;98529.31;;;28.21;42.54
53270;BME280;39159;45.634;9.420;2022-09-09T11:38:52;98522.84;;;28.24;42.57
53270;BME280;39159;45.634;9.420;2022-09-09T11:41:20;98524.31;;;28.12;43.42
53270;BME280;39159;45.634;9.420;2022-09-09T11:43:51;98513.47;;;28.30;41.32
53270;BME280;39159;45.634;9.420;2022-09-09T11:46:20;98515.47;;;28.30;42.35
53270;BME280;39159;45.634;9.420;2022-09-09T11:49:02;98524.44;;;28.58;42.95
53270;BME280;39159;45.634;9.420;2022-09-09T11:51:30;98521.34;;;28.52;40.56
53270;BME280;39159;45.634;9.420;2022-09-09T11:54:02;98522.94;;;28.53;42.21
53270;BME280;39159;45.634;9.420;2022-09-09T11:56:42;98518.09;;;28.21;41.72
53270;BME280;39159;45.634;9.420;2022-09-09T11:59:23;98515.72;;;28.03;41.77
53270;BME280;39159;45.634;9.420;2022-09-09T12:01:58;98519.22;;;27.90;42.75
53270;BME280;39159;45.634;9.420;2022-09-09T12:07:03;98512.84;;;28.06;41.19
53270;BME280;39159;45.634;9.420;2022-09-09T12:12:28;98509.03;;;27.97;42.04
53270;BME280;39159;45.634;9.420;2022-09-09T12:14:59;98515.88;;;27.59;43.06
53270;BME280;39159;45.634;9.420;2022-09-09T12:17:28;98509.25;;;27.69;42.05
53270;BME280;39159;45.634;9.420;2022-09-09T12:20:17;98508.69;;;27.95;42.23
53270;BME280;39159;45.634;9.420;2022-09-09T12:25:32;98498.34;;;28.08;41.90
53270;BME280;39159;45.634;9.420;2022-09-09T12:31:03;98491.09;;;27.94;42.47
53270;BME280;39159;45.634;9.420;2022-09-09T12:33:39;98491.09;;;28.10;45.77
53270;BME280;39159;45.634;9.420;2022-09-09T12:36:23;98483.38;;;28.31;40.82
53270;BME280;39159;45.634;9.420;2022-09-09T12:38:49;98483.34;;;27.82;43.25
53270;BME280;39159;45.634;9.420;2022-09-09T12:41:22;98474.72;;;28.09;42.06
53270;BME280;39159;45.634;9.420;2022-09-09T12:43:48;98485.06;;;28.28;41.55
53270;BME280;39159;45.634;9.420;2022-09-09T12:46:23;98479.47;;;27.76;41.47
53270;BME280;39159;45.634;9.420;2022-09-09T12:48:53;98476.44;;;28.03;46.88
53270;BME280;39159;45.634;9.420;2022-09-09T12:51:26;98478.97;;;28.30;42.04
53270;BME280;39159;45.634;9.420;2022-09-09T12:53:52;98465.91;;;28.56;41.61
53270;BME280;39159;45.634;9.420;2022-09-09T12:56:21;98462.34;;;28.85;41.17
53270;BME280;39159;45.634;9.420;2022-09-09T12:58:50;98454.41;;;28.96;40.48
53270;BME280;39159;45.634;9.420;2022-09-09T13:01:27;98461.28;;;28.33;41.07
53270;BME280;39159;45.634;9.420;2022-09-09T13:03:54;98466.19;;;28.29;42.34
53270;BME280;39159;45.634;9.420;2022-09-09T13:06:27;98459.75;;;28.45;41.31
53270;BME280;39159;45.634;9.420;2022-09-09T13:08:54;98459.16;;;28.54;41.60
53270;BME280;39159;45.634;9.420;2022-09-09T13:11:23;98452.69;;;28.86;40.64
53270;BME280;39159;45.634;9.420;2022-09-09T13:13:53;98448.63;;;28.87;44.05
53270;BME280;39159;45.634;9.420;2022-09-09T13:16:27;98450.94;;;29.05;41.85
53270;BME280;39159;45.634;9.420;2022-09-09T13:19:07;98445.97;;;28.67;40.09
53270;BME280;39159;45.634;9.420;2022-09-09T13:21:38;98446.97;;;28.89;41.25
53270;BME280;39159;45.634;9.420;2022-09-09T13:24:06;98441.72;;;29.04;41.05
53270;BME280;39159;45.634;9.420;2022-09-09T13:26:33;98430.75;;;29.10;44.07
53270;BME280;39159;45.634;9.420;2022-09-09T13:29:16;98434.88;;;28.76;42.26
53270;BME280;39159;45.634;9.420;2022-09-09T13:31:45;98427.00;;;29.00;40.79
53270;BME280;39159;45.634;9.420;2022-09-09T13:34:34;98433.91;;;28.54;41.26
53270;BME280;39159;45.634;9.420;2022-09-09T13:37:05;98431.69;;;27.99;44.15
53270;BME280;39159;45.634;9.420;2022-09-09T13:39:33;98418.44;;;28.45;42.52
53270;BME280;39159;45.634;9.420;2022-09-09T13:41:59;98423.94;;;28.65;41.16
53270;BME280;39159;45.634;9.420;2022-09-09T13:44:33;98424.91;;;28.88;40.14
53270;BME280;39159;45.634;9.420;2022-09-09T13:47:30;98425.28;;;28.90;42.17
53270;BME280;39159;45.634;9.420;2022-09-09T13:49:56;98417.81;;;29.12;39.95
53270;BME280;39159;45.634;9.420;2022-09-09T13:52:22;98423.41;;;29.00;40.44
53270;BME280;39159;45.634;9.420;2022-09-09T13:54:49;98416.78;;;29.06;39.84
53270;BME280;39159;45.634;9.420;2022-09-09T13:57:18;98414.97;;;29.00;39.91
53270;BME280;39159;45.634;9.420;2022-09-09T13:59:45;98415.97;;;29.06;40.43
53270;BME280;39159;45.634;9.420;2022-09-09T14:02:10;98414.22;;;29.12;39.39
53270;BME280;39159;45.634;9.420;2022-09-09T14:04:36;98418.63;;;29.13;39.47
53270;BME280;39159;45.634;9.420;2022-09-09T14:07:01;98412.03;;;29.03;39.79
53270;BME280;39159;45.634;9.420;2022-09-09T14:09:27;98415.03;;;28.54;41.43
53270;BME280;39159;45.634;9.420;2022-09-09T14:11:52;98405.13;;;28.04;40.63
53270;BME280;39159;45.634;9.420;2022-09-09T14:14:18;98403.59;;;27.83;42.29
53270;BME280;39159;45.634;9.420;2022-09-09T14:16:43;98394.13;;;27.60;44.57
53270;BME280;39159;45.634;9.420;2022-09-09T14:19:09;98404.09;;;27.61;45.93
53270;BME280;39159;45.634;9.420;2022-09-09T14:21:35;98400.06;;;27.79;42.65
53270;BME280;39159;45.634;9.420;2022-09-09T14:24:01;98395.19;;;28.16;42.06
53270;BME280;39159;45.634;9.420;2022-09-09T14:26:26;98393.00;;;28.07;42.00
53270;BME280;39159;45.634;9.420;2022-09-09T14:28:53;98392.63;;;28.21;42.94
53270;BME280;39159;45.634;9.420;2022-09-09T14:31:19;98394.63;;;28.37;42.36
53270;BME280;39159;45.634;9.420;2022-09-09T14:33:45;98393.75;;;28.40;43.61
53270;BME280;39159;45.634;9.420;2022-09-09T14:36:10;98390.38;;;28.45;40.16
53270;BME280;39159;45.634;9.420;2022-09-09T14:38:37;98394.13;;;28.26;40.25
53270;BME280;39159;45.634;9.420;2022-09-09T14:41:06;98386.34;;;28.17;41.64
53270;BME280;39159;45.634;9.420;2022-09-09T14:43:31;98382.38;;;28.15;40.68
53270;BME280;39159;45.634;9.420;2022-09-09T14:46:04;98392.91;;;27.78;42.26
53270;BME280;39159;45.634;9.420;2022-09-09T14:48:30;98388.66;;;27.37;42.51
53270;BME280;39159;45.634;9.420;2022-09-09T14:50:56;98398.09;;;27.26;43.62
53270;BME280;39159;45.634;9.420;2022-09-09T14:53:21;98394.16;;;27.24;45.48
53270;BME280;39159;45.634;9.420;2022-09-09T14:55:47;98388.88;;;27.46;44.16
53270;BME280;39159;45.634;9.420;2022-09-09T14:58:13;98394.03;;;27.64;42.88
53270;BME280;39159;45.634;9.420;2022-09-09T15:00:38;98390.00;;;27.81;43.74
53270;BME280;39159;45.634;9.420;2022-09-09T15:03:04;98391.78;;;27.92;43.73
53270;BME280;39159;45.634;9.420;2022-09-09T15:05:29;98388.88;;;27.79;44.57
53270;BME280;39159;45.634;9.420;2022-09-09T15:07:57;98388.00;;;27.82;45.24
53270;BME280;39159;45.634;9.420;2022-09-09T15:10:23;98391.88;;;27.88;44.26
53270;BME280;39159;45.634;9.420;2022-09-09T15:12:49;98385.09;;;27.69;43.18
53270;BME280;39159;45.634;9.420;2022-09-09T15:15:14;98392.63;;;27.72;44.18